Time;durP1;ratioP1;P1;durP2;ratioP2;P2;SDS_P1;SDS_P2;PMS_P1;PMS_P2;Temp;Humidity;BMP_temperature;BMP_pressure;BME280_temperature;BME280_humidity;BME280_pressure;Samples;Min_cycle;Max_cycle;Signal;HPM_P1;HPM_P2
2021/01/28 00:00:42;;;;;;;;;;;;;;;19.77;45.23;100339.16;2044622;29;3810;-69
2021/01/28 00:01:42;;;;;;;;;;;;;;;19.78;45.22;100337.13;2042238;29;3753;-69
2021/01/28 00:02:44;;;;;;;;;;;;;;;19.78;45.37;100326.59;2041775;29;3852;-68
2021/01/28 00:03:46;;;;;;;;;;;;;;;19.78;45.30;100328.63;2042085;29;3849;-68
2021/01/28 00:04:46;;;;;;;;;;;;;;;19.78;45.29;100325.78;2044623;29;4009;-68
2021/01/28 00:05:47;;;;;;;;;;;;;;;19.79;45.13;100327.44;2043290;29;3991;-68
2021/01/28 00:06:48;;;;;;;;;;;;;;;19.78;45.27;100323.75;2041595;29;3991;-68
2021/01/28 00:07:49;;;;;;;;;;;;;;;19.79;45.42;100313.25;2042466;29;3840;-67
2021/01/28 00:08:50;;;;;;;;;;;;;;;19.79;45.42;100311.25;2044115;29;3871;-67
2021/01/28 00:09:51;;;;;;;;;;;;;;;19.80;45.33;100317.75;2044583;29;3757;-68
2021/01/28 00:10:51;;;;;;;;;;;;;;;19.80;45.30;100307.22;2044229;28;3797;-68
2021/01/28 00:11:52;;;;;;;;;;;;;;;19.80;45.26;100310.06;2044678;29;3767;-67
2021/01/28 00:12:53;;;;;;;;;;;;;;;19.80;45.37;100303.56;2042615;29;3754;-68
2021/01/28 00:13:54;;;;;;;;;;;;;;;19.80;45.34;100298.69;2043325;28;3765;-68
2021/01/28 00:14:55;;;;;;;;;;;;;;;19.80;45.34;100284.50;2041882;29;3980;-68
2021/01/28 00:15:55;;;;;;;;;;;;;;;19.82;45.48;100280.47;2043927;29;3816;-71
2021/01/28 00:16:56;;;;;;;;;;;;;;;19.81;45.40;100285.31;2044597;29;3827;-70
2021/01/28 00:17:57;;;;;;;;;;;;;;;19.81;45.49;100291.00;2042631;29;3895;-68
2021/01/28 00:18:58;;;;;;;;;;;;;;;19.80;45.43;100290.19;2042392;29;3808;-68
2021/01/28 00:20:00;;;;;;;;;;;;;;;19.83;45.59;100285.81;2045266;29;4066;-68
2021/01/28 00:21:01;;;;;;;;;;;;;;;19.84;45.44;100281.78;2043885;29;3921;-68
2021/01/28 00:22:02;;;;;;;;;;;;;;;19.84;45.44;100280.94;2043825;28;3777;-68
2021/01/28 00:23:03;;;;;;;;;;;;;;;19.83;45.52;100274.44;2043105;29;3793;-68
2021/01/28 00:24:03;;;;;;;;;;;;;;;19.85;45.43;100268.41;2044318;29;3803;-71
2021/01/28 00:25:05;;;;;;;;;;;;;;;19.85;45.51;100268.41;2042505;29;3936;-69
2021/01/28 00:26:06;;;;;;;;;;;;;;;19.85;45.53;100263.56;2044404;29;3801;-69
2021/01/28 00:27:07;;;;;;;;;;;;;;;19.86;45.56;100270.06;2029543;29;3984;-69
2021/01/28 00:28:08;;;;;;;;;;;;;;;19.85;45.57;100263.56;2027782;29;4033;-69
2021/01/28 00:29:09;;;;;;;;;;;;;;;19.85;45.54;100263.56;2034133;29;3785;-69
2021/01/28 00:30:11;;;;;;;;;;;;;;;19.85;45.51;100260.72;2035629;29;3930;-69
2021/01/28 00:31:11;;;;;;;;;;;;;;;19.85;45.47;100257.03;2036791;28;3877;-69
2021/01/28 00:32:12;;;;;;;;;;;;;;;19.85;45.57;100255.06;2035989;29;4122;-68
2021/01/28 00:33:13;;;;;;;;;;;;;;;19.85;45.48;100252.22;2035221;29;4847;-68
2021/01/28 00:34:14;;;;;;;;;;;;;;;19.85;45.54;100255.06;2035395;29;3896;-69
2021/01/28 00:35:15;;;;;;;;;;;;;;;19.86;45.38;100253.03;2032960;29;3823;-69
2021/01/28 00:36:16;;;;;;;;;;;;;;;19.85;45.53;100251.38;2036685;28;3766;-68
2021/01/28 00:37:17;;;;;;;;;;;;;;;19.84;45.41;100258.25;2036116;29;3947;-70
2021/01/28 00:38:17;;;;;;;;;;;;;;;19.84;45.54;100259.06;2034969;29;3973;-69
2021/01/28 00:39:18;;;;;;;;;;;;;;;19.84;45.32;100261.06;2036120;28;3885;-69
2021/01/28 00:40:19;;;;;;;;;;;;;;;19.83;45.58;100263.09;2036482;29;4114;-69
2021/01/28 00:41:20;;;;;;;;;;;;;;;19.84;45.51;100267.56;2035614;29;3808;-68
2021/01/28 00:42:21;;;;;;;;;;;;;;;19.83;45.56;100271.63;2035776;29;3822;-68
2021/01/28 00:43:22;;;;;;;;;;;;;;;19.84;45.58;100273.25;2035640;28;3796;-69
2021/01/28 00:44:23;;;;;;;;;;;;;;;19.84;45.49;100273.25;2035242;29;4005;-68
2021/01/28 00:45:24;;;;;;;;;;;;;;;19.85;45.51;100274.94;2033815;29;3873;-68
2021/01/28 00:46:25;;;;;;;;;;;;;;;19.86;45.78;100273.72;2035791;29;3788;-68
2021/01/28 00:47:27;;;;;;;;;;;;;;;19.85;45.54;100274.94;2035675;29;3915;-68
2021/01/28 00:48:29;;;;;;;;;;;;;;;19.86;45.58;100270.06;2035607;29;3864;-68
2021/01/28 00:49:29;;;;;;;;;;;;;;;19.86;45.58;100264.41;2035424;29;3860;-68
2021/01/28 00:50:30;;;;;;;;;;;;;;;19.86;45.84;100267.22;2035806;29;3816;-68
2021/01/28 00:51:31;;;;;;;;;;;;;;;19.85;45.59;100260.72;2035704;29;3777;-68
2021/01/28 00:52:32;;;;;;;;;;;;;;;19.86;45.69;100253.88;2035680;28;3838;-67
2021/01/28 00:53:32;;;;;;;;;;;;;;;19.84;45.66;100250.53;2035158;29;3776;-67
2021/01/28 00:54:33;;;;;;;;;;;;;;;19.85;45.59;100242.84;2035452;29;3804;-68
2021/01/28 00:55:34;;;;;;;;;;;;;;;19.86;45.62;100247.38;2034052;29;3771;-69
2021/01/28 00:56:35;;;;;;;;;;;;;;;19.85;45.58;100242.84;2036522;29;3834;-69
2021/01/28 00:57:36;;;;;;;;;;;;;;;19.84;45.59;100242.03;2035853;29;3839;-68
2021/01/28 00:58:37;;;;;;;;;;;;;;;19.84;45.49;100244.88;2035865;29;3938;-69
2021/01/28 00:59:38;;;;;;;;;;;;;;;19.84;45.52;100244.88;2036896;29;3824;-69
2021/01/28 01:00:38;;;;;;;;;;;;;;;19.83;45.55;100243.22;2036055;29;3804;-69
2021/01/28 01:01:39;;;;;;;;;;;;;;;19.85;45.43;100242.84;2036145;28;4269;-70
2021/01/28 01:02:40;;;;;;;;;;;;;;;19.85;45.58;100237.19;2036750;29;3942;-70
2021/01/28 01:03:41;;;;;;;;;;;;;;;19.85;45.57;100240.00;2033566;28;3726;-69
2021/01/28 01:04:42;;;;;;;;;;;;;;;19.85;45.55;100240.00;2036711;28;3774;-69
2021/01/28 01:05:44;;;;;;;;;;;;;;;19.84;45.49;100241.22;2034621;29;4423;-69
2021/01/28 01:06:45;;;;;;;;;;;;;;;19.83;45.53;100237.56;2035449;29;3872;-69
2021/01/28 01:07:46;;;;;;;;;;;;;;;19.83;45.56;100243.22;2036800;29;5075;-69
2021/01/28 01:08:46;;;;;;;;;;;;;;;19.85;45.56;100243.69;2034267;29;3778;-70
2021/01/28 01:09:47;;;;;;;;;;;;;;;19.84;45.64;100249.72;2036386;29;3830;-70
2021/01/28 01:10:48;;;;;;;;;;;;;;;19.84;45.52;100242.03;2037078;29;3714;-70
2021/01/28 01:11:49;;;;;;;;;;;;;;;19.85;45.58;100246.53;2034791;29;4401;-71
2021/01/28 01:12:49;;;;;;;;;;;;;;;19.84;45.74;100241.22;2034710;29;3840;-69
2021/01/28 01:13:50;;;;;;;;;;;;;;;19.84;45.64;100247.72;2034320;29;3777;-70
2021/01/28 01:14:51;;;;;;;;;;;;;;;19.85;45.35;100243.69;2034828;29;4394;-68
2021/01/28 01:15:53;;;;;;;;;;;;;;;19.85;45.69;100246.53;2036346;28;3829;-68
2021/01/28 01:16:54;;;;;;;;;;;;;;;19.86;45.62;100241.69;2036112;29;3786;-72
2021/01/28 01:17:55;;;;;;;;;;;;;;;19.86;45.65;100241.69;2035295;29;3945;-69
2021/01/28 01:18:56;;;;;;;;;;;;;;;19.86;45.59;100239.66;2035700;29;4002;-71
2021/01/28 01:19:57;;;;;;;;;;;;;;;19.86;45.53;100228.31;2036325;29;3900;-70
2021/01/28 01:20:57;;;;;;;;;;;;;;;19.86;45.56;100224.66;2036578;29;6049;-69
2021/01/28 01:21:58;;;;;;;;;;;;;;;19.86;45.54;100230.34;2034812;28;3836;-69
2021/01/28 01:22:59;;;;;;;;;;;;;;;19.86;45.58;100228.31;2035026;29;3955;-69
2021/01/28 01:24:00;;;;;;;;;;;;;;;19.86;45.51;100224.66;2033596;29;4238;-69
2021/01/28 01:25:01;;;;;;;;;;;;;;;19.86;45.51;100216.13;2034532;28;4095;-70
2021/01/28 01:26:01;;;;;;;;;;;;;;;19.86;45.52;100214.13;2036125;29;3790;-69
2021/01/28 01:27:03;;;;;;;;;;;;;;;19.87;45.43;100215.75;2043030;29;3828;-69
2021/01/28 01:28:04;;;;;;;;;;;;;;;19.87;45.53;100206.44;2043760;28;3747;-69
2021/01/28 01:29:05;;;;;;;;;;;;;;;19.87;45.60;100212.91;2043501;29;3792;-69
2021/01/28 01:30:08;;;;;;;;;;;;;;;19.87;45.55;100210.09;2042372;28;4017;-69
2021/01/28 01:31:09;;;;;;;;;;;;;;;19.87;45.43;100203.59;2044174;29;3754;-70
2021/01/28 01:32:11;;;;;;;;;;;;;;;19.87;45.43;100207.25;2042893;29;3839;-70
2021/01/28 01:33:12;;;;;;;;;;;;;;;19.87;45.50;100207.25;2044256;29;3768;-70
2021/01/28 01:34:13;;;;;;;;;;;;;;;19.88;45.39;100199.56;2040467;29;3926;-71
2021/01/28 01:35:13;;;;;;;;;;;;;;;19.87;45.58;100198.72;2040438;29;3926;-71
2021/01/28 01:36:14;;;;;;;;;;;;;;;19.87;45.53;100195.88;2043633;28;3734;-70
2021/01/28 01:37:15;;;;;;;;;;;;;;;19.88;45.46;100194.72;2043743;29;3806;-70
2021/01/28 01:38:16;;;;;;;;;;;;;;;19.88;45.62;100194.72;2044256;29;4118;-70
2021/01/28 01:39:17;;;;;;;;;;;;;;;19.88;45.59;100202.41;2042322;28;5185;-71
2021/01/28 01:40:17;;;;;;;;;;;;;;;19.88;45.45;100183.38;2044089;28;3742;-71
2021/01/28 01:41:18;;;;;;;;;;;;;;;19.88;45.55;100189.03;2043825;28;3805;-70
2021/01/28 01:42:19;;;;;;;;;;;;;;;19.89;45.42;100192.69;2045670;29;3941;-71
2021/01/28 01:43:20;;;;;;;;;;;;;;;19.87;45.49;100187.38;2045626;29;3806;-70
2021/01/28 01:44:21;;;;;;;;;;;;;;;19.88;45.61;100189.03;2044269;29;3784;-70
2021/01/28 01:45:22;;;;;;;;;;;;;;;19.88;45.53;100183.38;2044084;29;3935;-71
2021/01/28 01:46:23;;;;;;;;;;;;;;;19.88;45.59;100180.53;2045340;29;3800;-69
2021/01/28 01:47:25;;;;;;;;;;;;;;;19.88;45.58;100174.84;2045660;29;3995;-68
2021/01/28 01:48:26;;;;;;;;;;;;;;;19.88;45.56;100174.84;2045735;29;3956;-69
2021/01/28 01:49:27;;;;;;;;;;;;;;;19.89;45.58;100170.00;2044556;29;3774;-68
2021/01/28 01:50:28;;;;;;;;;;;;;;;19.89;45.68;100173.66;2045286;29;4402;-68
2021/01/28 01:51:29;;;;;;;;;;;;;;;19.89;45.58;100167.16;2044431;29;3939;-68
2021/01/28 01:52:30;;;;;;;;;;;;;;;19.89;45.63;100167.97;2045728;29;3923;-70
2021/01/28 01:53:31;;;;;;;;;;;;;;;19.89;45.47;100170.00;2045428;29;3926;-69
2021/01/28 01:54:32;;;;;;;;;;;;;;;19.89;45.47;100162.31;2042847;29;3864;-70
2021/01/28 01:55:33;;;;;;;;;;;;;;;19.88;45.51;100165.50;2043770;29;4069;-69
2021/01/28 01:56:34;;;;;;;;;;;;;;;19.89;45.51;100167.16;2045685;29;3947;-69
2021/01/28 01:57:34;;;;;;;;;;;;;;;19.89;45.50;100161.47;2045733;29;3923;-70
2021/01/28 01:58:35;;;;;;;;;;;;;;;19.88;45.51;100162.69;2044691;28;4006;-71
2021/01/28 01:59:36;;;;;;;;;;;;;;;19.88;45.59;100172.00;2029264;29;4231;-71
2021/01/28 02:00:37;;;;;;;;;;;;;;;19.88;45.60;100169.16;2029367;29;3776;-69
2021/01/28 02:01:38;;;;;;;;;;;;;;;19.89;45.63;100167.97;2044021;29;3870;-70
2021/01/28 02:02:39;;;;;;;;;;;;;;;19.89;45.54;100164.31;2042579;29;3889;-69
2021/01/28 02:03:40;;;;;;;;;;;;;;;19.90;45.56;100168.78;2043141;29;3901;-69
2021/01/28 02:04:40;;;;;;;;;;;;;;;19.89;45.54;100165.13;2043937;28;3860;-69
2021/01/28 02:05:41;;;;;;;;;;;;;;;19.90;45.57;100163.94;2042095;29;4003;-69
2021/01/28 02:06:42;;;;;;;;;;;;;;;19.90;45.62;100165.97;2043520;28;4076;-69
2021/01/28 02:07:44;;;;;;;;;;;;;;;19.89;45.57;100167.97;2045618;29;4060;-74
2021/01/28 02:08:44;;;;;;;;;;;;;;;19.90;45.63;100160.28;2044480;29;3977;-70
2021/01/28 02:09:45;;;;;;;;;;;;;;;19.91;45.79;100171.28;2043936;29;4974;-70
2021/01/28 02:10:46;;;;;;;;;;;;;;;19.91;45.65;100171.28;2045521;28;3830;-68
2021/01/28 02:11:47;;;;;;;;;;;;;;;19.92;45.76;100172.94;2045069;29;4009;-70
2021/01/28 02:12:48;;;;;;;;;;;;;;;19.92;45.59;100163.59;2044872;29;3729;-70
2021/01/28 02:13:49;;;;;;;;;;;;;;;19.93;45.59;100174.59;2044640;29;3826;-71
2021/01/28 02:14:50;;;;;;;;;;;;;;;19.91;45.74;100161.94;2042889;29;3782;-70
2021/01/28 02:15:51;;;;;;;;;;;;;;;19.92;45.76;100161.56;2043739;29;3792;-71
2021/01/28 02:16:52;;;;;;;;;;;;;;;19.93;45.63;100162.38;2044385;29;3774;-71
2021/01/28 02:17:53;;;;;;;;;;;;;;;19.92;45.73;100163.59;2037708;29;3887;-71
2021/01/28 02:18:54;;;;;;;;;;;;;;;19.94;45.65;100164.88;2037359;29;5650;-71
2021/01/28 02:19:55;;;;;;;;;;;;;;;19.93;45.70;100154.72;2043679;29;3689;-70
2021/01/28 02:20:56;;;;;;;;;;;;;;;19.94;45.59;100153.53;2044687;29;3905;-73
2021/01/28 02:21:57;;;;;;;;;;;;;;;19.94;45.77;100162.03;2044081;29;3773;-71
2021/01/28 02:22:57;;;;;;;;;;;;;;;19.95;45.75;100162.88;2043993;29;4010;-70
2021/01/28 02:23:58;;;;;;;;;;;;;;;19.94;45.75;100155.53;2043489;28;3901;-70
2021/01/28 02:24:59;;;;;;;;;;;;;;;19.94;45.65;100152.69;2043199;28;3876;-71
2021/01/28 02:25:59;;;;;;;;;;;;;;;19.94;45.63;100153.53;2045041;29;3796;-71
2021/01/28 02:27:00;;;;;;;;;;;;;;;19.94;45.81;100153.53;2042409;29;4046;-71
2021/01/28 02:28:01;;;;;;;;;;;;;;;19.95;45.72;100155.16;2043351;29;3841;-71
2021/01/28 02:29:02;;;;;;;;;;;;;;;19.94;45.61;100153.53;2041626;29;4045;-71
2021/01/28 02:30:03;;;;;;;;;;;;;;;19.94;45.76;100152.69;2043112;29;3787;-71
2021/01/28 02:31:04;;;;;;;;;;;;;;;19.94;45.65;100152.69;2042672;28;4027;-72
2021/01/28 02:32:05;;;;;;;;;;;;;;;19.94;45.77;100152.69;2044576;29;3805;-71
2021/01/28 02:33:07;;;;;;;;;;;;;;;19.93;45.81;100160.41;2044347;29;3936;-71
2021/01/28 02:34:08;;;;;;;;;;;;;;;19.94;45.75;100156.38;2043356;29;3825;-70
2021/01/28 02:35:08;;;;;;;;;;;;;;;19.95;45.84;100151.50;2032061;29;5130;-71
2021/01/28 02:36:10;;;;;;;;;;;;;;;19.94;45.76;100147.03;2036611;29;3908;-70
2021/01/28 02:37:11;;;;;;;;;;;;;;;19.94;45.76;100144.19;2044400;28;3814;-70
2021/01/28 02:38:12;;;;;;;;;;;;;;;19.93;45.75;100149.03;2045483;29;3804;-70
2021/01/28 02:39:13;;;;;;;;;;;;;;;19.92;45.78;100144.53;2044048;29;4007;-70
2021/01/28 02:40:13;;;;;;;;;;;;;;;19.93;45.64;100148.19;2045177;29;3893;-70
2021/01/28 02:41:14;;;;;;;;;;;;;;;19.93;45.82;100151.03;2044676;29;3945;-71
2021/01/28 02:42:15;;;;;;;;;;;;;;;19.92;45.84;100144.53;2044691;29;4027;-68
2021/01/28 02:43:15;;;;;;;;;;;;;;;19.93;45.79;100151.03;2045324;28;3879;-68
2021/01/28 02:44:16;;;;;;;;;;;;;;;19.93;45.75;100142.50;2045566;29;3983;-68
2021/01/28 02:45:17;;;;;;;;;;;;;;;19.93;45.83;100148.19;2042537;29;3959;-68
2021/01/28 02:46:18;;;;;;;;;;;;;;;19.94;45.70;100144.19;2045628;29;3927;-69
2021/01/28 02:47:19;;;;;;;;;;;;;;;19.93;45.75;100134.00;2046042;29;3938;-67
2021/01/28 02:48:19;;;;;;;;;;;;;;;19.93;45.77;100134.00;2044441;28;3801;-68
2021/01/28 02:49:20;;;;;;;;;;;;;;;19.93;45.77;100134.00;2043757;29;3812;-68
2021/01/28 02:50:22;;;;;;;;;;;;;;;19.93;45.74;100140.53;2045183;29;4034;-69
2021/01/28 02:51:23;;;;;;;;;;;;;;;19.93;45.76;100134.00;2044510;28;3773;-69
2021/01/28 02:52:28;;;;;;;;;;;;;;;19.93;45.86;100134.00;2045082;28;3921;-68
2021/01/28 02:53:29;;;;;;;;;;;;;;;19.93;45.84;100136.84;2045098;29;3964;-69
2021/01/28 02:54:30;;;;;;;;;;;;;;;19.93;45.75;100137.69;2043245;29;4025;-68
2021/01/28 02:55:30;;;;;;;;;;;;;;;19.92;45.79;100138.84;2043821;28;3881;-68
2021/01/28 02:56:31;;;;;;;;;;;;;;;19.91;45.79;100134.38;2044914;29;3927;-68
2021/01/28 02:57:32;;;;;;;;;;;;;;;19.93;45.72;100131.16;2042800;29;3773;-67
2021/01/28 02:58:33;;;;;;;;;;;;;;;19.92;45.76;100130.34;2043925;29;3839;-68
2021/01/28 02:59:33;;;;;;;;;;;;;;;19.92;45.84;100136.03;2042833;29;3930;-67
2021/01/28 03:00:34;;;;;;;;;;;;;;;19.93;45.77;100129.19;2044252;28;3780;-72
2021/01/28 03:01:35;;;;;;;;;;;;;;;19.92;45.87;100133.19;2045305;29;3981;-70
2021/01/28 03:02:36;;;;;;;;;;;;;;;19.92;45.75;100124.66;2039984;29;3841;-68
2021/01/28 03:03:37;;;;;;;;;;;;;;;19.91;45.69;100128.72;2043106;28;3910;-67
2021/01/28 03:04:37;;;;;;;;;;;;;;;19.92;45.68;100126.69;2042620;28;3753;-68
2021/01/28 03:05:38;;;;;;;;;;;;;;;19.91;45.74;100137.22;2042173;29;3935;-71
2021/01/28 03:06:39;;;;;;;;;;;;;;;19.91;45.81;100131.53;2044637;29;3786;-70
2021/01/28 03:07:40;;;;;;;;;;;;;;;19.92;45.75;100130.34;2045496;29;3882;-68
2021/01/28 03:08:40;;;;;;;;;;;;;;;19.93;45.64;100125.47;2044046;29;3922;-68
2021/01/28 03:09:41;;;;;;;;;;;;;;;19.92;45.74;100127.50;2045096;28;3842;-72
2021/01/28 03:10:42;;;;;;;;;;;;;;;19.93;45.66;100128.31;2044718;29;3753;-75
2021/01/28 03:11:42;;;;;;;;;;;;;;;19.92;45.71;100127.50;2042383;29;4030;-75
2021/01/28 03:12:44;;;;;;;;;;;;;;;19.91;45.77;100131.53;2044891;28;3966;-75
2021/01/28 03:13:45;;;;;;;;;;;;;;;19.91;45.86;100122.22;2041576;28;3752;-75
2021/01/28 03:14:45;;;;;;;;;;;;;;;19.90;45.78;100127.03;2035870;29;3776;-76
2021/01/28 03:15:46;;;;;;;;;;;;;;;19.90;45.73;100124.19;2034062;29;4074;-69
2021/01/28 03:16:47;;;;;;;;;;;;;;;19.90;45.92;100123.38;2045031;29;4054;-71
2021/01/28 03:17:48;;;;;;;;;;;;;;;19.90;45.86;100117.69;2044678;29;3929;-69
2021/01/28 03:18:49;;;;;;;;;;;;;;;19.91;45.68;100123.03;2043707;29;3943;-70
2021/01/28 03:19:50;;;;;;;;;;;;;;;19.90;45.81;100124.19;2044448;29;3749;-70
2021/01/28 03:20:54;;;;;;;;;;;;;;;19.90;45.53;100124.19;2029669;29;4029;-69
2021/01/28 03:21:55;;;;;;;;;;;;;;;19.91;45.71;100125.88;2029986;29;3872;-69
2021/01/28 03:22:57;;;;;;;;;;;;;;;19.91;45.80;100111.66;2043248;29;3880;-70
2021/01/28 03:23:58;;;;;;;;;;;;;;;19.91;45.78;100125.88;2044344;28;3827;-70
2021/01/28 03:24:59;;;;;;;;;;;;;;;19.90;45.71;100121.34;2043039;28;3789;-70
2021/01/28 03:25:59;;;;;;;;;;;;;;;19.90;45.80;100124.19;2044616;29;3934;-70
2021/01/28 03:27:00;;;;;;;;;;;;;;;19.91;45.70;100117.34;2042078;29;3798;-69
2021/01/28 03:28:01;;;;;;;;;;;;;;;19.91;45.62;100114.50;2044406;28;3915;-68
2021/01/28 03:29:03;;;;;;;;;;;;;;;19.91;45.62;100117.34;2044674;29;3948;-68
2021/01/28 03:30:09;;;;;;;;;;;;;;;19.91;45.80;100113.69;2043833;28;3777;-70
2021/01/28 03:31:10;;;;;;;;;;;;;;;19.91;45.60;100110.84;2044226;28;3836;-70
2021/01/28 03:32:11;;;;;;;;;;;;;;;19.92;45.62;100109.66;2043389;29;3941;-68
2021/01/28 03:33:12;;;;;;;;;;;;;;;19.91;45.72;100106.00;2044985;29;3878;-71
2021/01/28 03:34:13;;;;;;;;;;;;;;;19.91;45.75;100108.84;2044460;29;3821;-70
2021/01/28 03:35:13;;;;;;;;;;;;;;;19.91;45.74;100103.16;2043333;29;4035;-70
2021/01/28 03:36:14;;;;;;;;;;;;;;;19.91;45.78;100108.84;2044600;29;5128;-70
2021/01/28 03:37:15;;;;;;;;;;;;;;;19.91;45.67;100108.00;2044741;28;3782;-71
2021/01/28 03:38:16;;;;;;;;;;;;;;;19.91;45.78;100102.34;2044944;29;4044;-70
2021/01/28 03:39:17;;;;;;;;;;;;;;;19.91;45.70;100102.34;2042935;29;3816;-73
2021/01/28 03:40:17;;;;;;;;;;;;;;;19.91;45.68;100096.66;2044153;28;3936;-72
2021/01/28 03:41:18;;;;;;;;;;;;;;;19.91;45.76;100094.63;2043633;28;3920;-69
2021/01/28 03:42:19;;;;;;;;;;;;;;;19.91;45.77;100083.28;2044992;29;3889;-68
2021/01/28 03:43:20;;;;;;;;;;;;;;;19.92;45.83;100087.75;2044997;28;4146;-70
2021/01/28 03:44:21;;;;;;;;;;;;;;;19.91;45.76;100083.28;2042666;29;3982;-70
2021/01/28 03:45:23;;;;;;;;;;;;;;;19.92;45.80;100087.75;2043226;29;3901;-70
2021/01/28 03:46:24;;;;;;;;;;;;;;;19.91;45.76;100086.13;2044221;29;4210;-69
2021/01/28 03:47:25;;;;;;;;;;;;;;;19.91;45.78;100080.44;2044356;29;3887;-70
2021/01/28 03:48:26;;;;;;;;;;;;;;;19.93;45.88;100077.22;2044764;28;3876;-70
2021/01/28 03:49:27;;;;;;;;;;;;;;;19.91;45.82;100079.63;2042811;29;3891;-71
2021/01/28 03:50:27;;;;;;;;;;;;;;;19.91;45.88;100073.94;2044730;29;3976;-70
2021/01/28 03:51:28;;;;;;;;;;;;;;;19.91;45.74;100080.44;2044058;28;5183;-70
2021/01/28 03:52:29;;;;;;;;;;;;;;;19.91;45.87;100076.78;2045016;29;3786;-70
2021/01/28 03:53:30;;;;;;;;;;;;;;;19.93;45.86;100071.53;2043228;29;3943;-68
2021/01/28 03:54:30;;;;;;;;;;;;;;;19.92;45.90;100070.72;2043965;28;3876;-70
2021/01/28 03:55:33;;;;;;;;;;;;;;;19.93;45.97;100065.88;2043638;28;4123;-68
2021/01/28 03:56:34;;;;;;;;;;;;;;;19.91;45.97;100066.25;2042923;29;3930;-67
2021/01/28 03:57:35;;;;;;;;;;;;;;;19.93;45.92;100065.88;2042938;28;5015;-70
2021/01/28 03:58:36;;;;;;;;;;;;;;;19.92;45.92;100062.22;2043626;29;4283;-71
2021/01/28 03:59:37;;;;;;;;;;;;;;;19.92;46.00;100059.38;2044817;29;4044;-70
2021/01/28 04:00:38;;;;;;;;;;;;;;;19.93;45.90;100061.03;2044518;29;4058;-70
2021/01/28 04:01:39;;;;;;;;;;;;;;;19.93;45.91;100063.03;2042695;29;3811;-69
2021/01/28 04:02:40;;;;;;;;;;;;;;;19.92;46.11;100062.22;2044292;28;3908;-70
2021/01/28 04:03:41;;;;;;;;;;;;;;;19.93;45.94;100058.19;2044682;28;3766;-69
2021/01/28 04:04:42;;;;;;;;;;;;;;;19.94;46.11;100064.69;2043095;29;3744;-69
2021/01/28 04:05:43;;;;;;;;;;;;;;;19.93;46.02;100061.03;2042526;29;3907;-69
2021/01/28 04:06:44;;;;;;;;;;;;;;;19.93;46.02;100060.19;2042605;29;4039;-69
2021/01/28 04:07:45;;;;;;;;;;;;;;;19.94;46.01;100059.03;2045021;28;3983;-69
2021/01/28 04:08:45;;;;;;;;;;;;;;;19.93;46.07;100066.72;2043480;29;3907;-69
2021/01/28 04:09:46;;;;;;;;;;;;;;;19.93;46.10;100060.19;2041659;29;3786;-69
2021/01/28 04:10:47;;;;;;;;;;;;;;;19.93;46.14;100054.50;2044433;28;3788;-69
2021/01/28 04:11:48;;;;;;;;;;;;;;;19.92;46.06;100056.53;2044371;29;3817;-69
2021/01/28 04:12:48;;;;;;;;;;;;;;;19.93;46.08;100054.50;2044431;29;3785;-69
2021/01/28 04:13:49;;;;;;;;;;;;;;;19.94;46.07;100050.50;2042940;29;3891;-69
2021/01/28 04:14:50;;;;;;;;;;;;;;;19.93;46.04;100055.38;2039917;29;3984;-69
2021/01/28 04:15:50;;;;;;;;;;;;;;;19.93;45.98;100061.03;2043969;29;3767;-69
2021/01/28 04:16:51;;;;;;;;;;;;;;;19.93;46.10;100058.19;2044088;29;3804;-69
2021/01/28 04:17:52;;;;;;;;;;;;;;;19.93;46.11;100049.69;2043292;29;4010;-69
2021/01/28 04:18:53;;;;;;;;;;;;;;;19.92;46.08;100050.84;2044342;28;3810;-69
2021/01/28 04:19:54;;;;;;;;;;;;;;;19.93;46.13;100055.38;2044367;28;3734;-69
2021/01/28 04:20:55;;;;;;;;;;;;;;;19.93;46.03;100052.53;2042615;29;3826;-69
2021/01/28 04:21:55;;;;;;;;;;;;;;;19.93;46.10;100046.84;2043955;29;3941;-69
2021/01/28 04:22:56;;;;;;;;;;;;;;;19.92;46.16;100050.84;2044429;29;3874;-71
2021/01/28 04:23:57;;;;;;;;;;;;;;;19.93;46.10;100043.16;2044393;29;3939;-70
2021/01/28 04:24:58;;;;;;;;;;;;;;;19.91;46.01;100040.69;2041737;28;3912;-70
2021/01/28 04:25:58;;;;;;;;;;;;;;;19.91;46.15;100049.22;2044198;29;3967;-70
2021/01/28 04:26:59;;;;;;;;;;;;;;;19.92;46.04;100042.34;2044369;29;3802;-69
2021/01/28 04:28:00;;;;;;;;;;;;;;;19.92;46.06;100042.34;2044615;29;3961;-70
2021/01/28 04:29:01;;;;;;;;;;;;;;;19.92;46.10;100041.53;2044287;29;3931;-71
2021/01/28 04:30:03;;;;;;;;;;;;;;;19.92;46.20;100033.00;2042701;28;3837;-69
2021/01/28 04:31:04;;;;;;;;;;;;;;;19.92;46.14;100039.50;2045294;28;4109;-70
2021/01/28 04:32:06;;;;;;;;;;;;;;;19.91;46.16;100032.19;2042808;29;3827;-70
2021/01/28 04:33:08;;;;;;;;;;;;;;;19.93;46.26;100032.66;2043140;29;3915;-71
2021/01/28 04:34:09;;;;;;;;;;;;;;;19.94;46.27;100033.47;2043544;28;3783;-72
2021/01/28 04:35:10;;;;;;;;;;;;;;;19.93;46.27;100041.16;2041073;29;5217;-70
2021/01/28 04:36:11;;;;;;;;;;;;;;;19.93;46.13;100038.34;2043894;29;3772;-71
2021/01/28 04:37:11;;;;;;;;;;;;;;;19.93;46.16;100041.16;2043341;28;3935;-71
2021/01/28 04:38:12;;;;;;;;;;;;;;;19.93;46.14;100034.66;2044320;29;3994;-70
2021/01/28 04:39:13;;;;;;;;;;;;;;;19.91;46.24;100035.03;2043769;29;4072;-70
2021/01/28 04:40:13;;;;;;;;;;;;;;;19.92;46.19;100035.84;2042394;29;3841;-70
2021/01/28 04:41:14;;;;;;;;;;;;;;;19.91;46.19;100035.03;2043881;29;4052;-70
2021/01/28 04:42:15;;;;;;;;;;;;;;;19.91;45.88;100035.03;2044523;29;3855;-69
2021/01/28 04:43:16;;;;;;;;;;;;;;;19.91;46.15;100040.69;2044455;28;3781;-70
2021/01/28 04:44:17;;;;;;;;;;;;;;;19.92;46.23;100036.66;2042724;29;3930;-70
2021/01/28 04:45:19;;;;;;;;;;;;;;;19.93;46.18;100034.66;2042649;28;3922;-70
2021/01/28 04:46:20;;;;;;;;;;;;;;;19.91;46.23;100032.19;2044161;29;3798;-70
2021/01/28 04:47:22;;;;;;;;;;;;;;;19.92;46.33;100036.66;2044633;29;3881;-70
2021/01/28 04:48:23;;;;;;;;;;;;;;;19.92;46.26;100039.50;2044743;29;3768;-70
2021/01/28 04:49:23;;;;;;;;;;;;;;;19.92;46.20;100033.81;2042618;28;3778;-71
2021/01/28 04:50:24;;;;;;;;;;;;;;;19.91;46.12;100043.53;2044679;29;3936;-70
2021/01/28 04:51:25;;;;;;;;;;;;;;;19.91;46.31;100043.53;2043476;29;3782;-70
2021/01/28 04:52:26;;;;;;;;;;;;;;;19.91;46.29;100037.88;2043526;29;3866;-71
2021/01/28 04:53:26;;;;;;;;;;;;;;;19.91;46.39;100039.88;2044787;29;4045;-71
2021/01/28 04:54:27;;;;;;;;;;;;;;;19.92;46.15;100039.50;2042854;29;3766;-71
2021/01/28 04:55:28;;;;;;;;;;;;;;;19.91;46.26;100040.69;2043225;28;3857;-70
2021/01/28 04:56:29;;;;;;;;;;;;;;;19.93;46.23;100037.47;2044659;29;3981;-70
2021/01/28 04:57:33;;;;;;;;;;;;;;;19.91;46.24;100032.19;2044304;29;3887;-70
2021/01/28 04:58:34;;;;;;;;;;;;;;;19.93;46.32;100026.13;2043961;29;3901;-69
2021/01/28 04:59:36;;;;;;;;;;;;;;;19.91;46.33;100029.34;2043878;29;4369;-71
2021/01/28 05:00:36;;;;;;;;;;;;;;;19.91;46.25;100026.50;2044023;29;3753;-70
2021/01/28 05:01:37;;;;;;;;;;;;;;;19.92;46.28;100031.00;2043493;29;4029;-70
2021/01/28 05:02:38;;;;;;;;;;;;;;;19.92;46.26;100031.00;2044256;29;3983;-69
2021/01/28 05:03:39;;;;;;;;;;;;;;;19.93;46.30;100024.13;2042977;29;3973;-69
2021/01/28 05:04:40;;;;;;;;;;;;;;;19.93;46.25;100029.81;2043928;29;3765;-69
2021/01/28 05:05:41;;;;;;;;;;;;;;;19.92;46.38;100031.00;2042044;29;3810;-69
2021/01/28 05:06:41;;;;;;;;;;;;;;;19.93;46.41;100024.13;2044706;29;3923;-69
2021/01/28 05:07:42;;;;;;;;;;;;;;;19.93;46.36;100029.81;2043393;29;3893;-70
2021/01/28 05:08:44;;;;;;;;;;;;;;;19.92;46.21;100019.63;2043230;29;4056;-69
2021/01/28 05:09:45;;;;;;;;;;;;;;;19.93;46.37;100021.31;2043671;29;3900;-70
2021/01/28 05:10:45;;;;;;;;;;;;;;;19.93;46.37;100014.78;2044095;28;3783;-69
2021/01/28 05:11:46;;;;;;;;;;;;;;;19.93;46.40;100014.78;2044361;29;3990;-69
2021/01/28 05:12:47;;;;;;;;;;;;;;;19.93;46.36;100018.47;2043867;29;3727;-70
2021/01/28 05:13:48;;;;;;;;;;;;;;;19.93;46.33;100014.78;2042683;28;3927;-70
2021/01/28 05:14:48;;;;;;;;;;;;;;;19.94;46.45;100013.59;2043475;29;3881;-69
2021/01/28 05:15:49;;;;;;;;;;;;;;;19.94;46.33;100014.41;2029218;29;3990;-69
2021/01/28 05:16:50;;;;;;;;;;;;;;;19.92;46.36;100007.47;2030334;29;3777;-69
2021/01/28 05:17:51;;;;;;;;;;;;;;;19.93;46.34;100009.94;2045758;29;3880;-70